Time;durP1;ratioP1;P1;durP2;ratioP2;P2;SDS_P1;SDS_P2;PMS_P1;PMS_P2;Temp;Humidity;BMP_temperature;BMP_pressure;BME280_temperature;BME280_humidity;BME280_pressure;Samples;Min_cycle;Max_cycle;Signal;HPM_P1;HPM_P2
2021/09/30 00:01:54;;;;;;;2.83;2.70;;;13.10;99.90;;;;;;5071840;28;20411;-69
2021/09/30 00:04:20;;;;;;;2.93;2.73;;;13.00;99.90;;;;;;5072551;28;20188;-69
2021/09/30 00:06:46;;;;;;;2.73;2.53;;;13.10;99.90;;;;;;5070858;28;20181;-76
2021/09/30 00:09:11;;;;;;;2.87;2.73;;;13.10;99.90;;;;;;5071462;28;20680;-69
2021/09/30 00:11:41;;;;;;;3.23;2.67;;;13.10;99.90;;;;;;5054417;28;20176;-69
2021/09/30 00:14:18;;;;;;;2.70;2.60;;;13.10;99.90;;;;;;5052048;28;20486;-69
2021/09/30 00:47:01;;;;;;;3.60;3.30;;;13.10;99.90;;;;;;5037222;28;20482;-76
2021/09/30 02:21:43;;;;;;;4.80;4.07;;;13.10;99.90;;;;;;5034202;28;20881;-69
2021/09/30 02:24:50;;;;;;;3.67;3.47;;;13.10;99.90;;;;;;5033685;28;20427;-69
2021/09/30 02:29:30;;;;;;;4.80;3.90;;;13.10;99.90;;;;;;5034068;28;20406;-69
2021/09/30 02:59:48;;;;;;;3.67;3.37;;;13.10;99.90;;;;;;5034127;28;20406;-69
2021/09/30 03:02:16;;;;;;;9.60;3.57;;;13.10;99.90;;;;;;5033389;28;20510;-67
2021/09/30 03:04:44;;;;;;;5.10;4.10;;;13.10;99.90;;;;;;5034033;28;20418;-67
2021/09/30 03:07:11;;;;;;;3.70;3.57;;;13.10;99.90;;;;;;5033527;28;20438;-68
2021/09/30 03:09:39;;;;;;;4.67;4.27;;;13.20;99.90;;;;;;5034025;28;20409;-67
2021/09/30 03:12:31;;;;;;;4.53;4.10;;;13.20;99.90;;;;;;5033203;28;20412;-68
2021/09/30 03:23:15;;;;;;;4.93;4.43;;;13.20;99.90;;;;;;5049388;28;20493;-68
2021/09/30 03:25:43;;;;;;;4.80;4.20;;;13.20;99.90;;;;;;5053582;28;20408;-68
2021/09/30 03:28:11;;;;;;;3.53;3.20;;;13.20;99.90;;;;;;5052865;28;20904;-68
2021/09/30 03:30:37;;;;;;;3.70;3.50;;;13.20;99.90;;;;;;5053085;28;20418;-68
2021/09/30 03:33:07;;;;;;;3.80;3.60;;;13.20;99.90;;;;;;5052644;28;20498;-68
2021/09/30 03:35:35;;;;;;;5.03;3.20;;;13.20;99.90;;;;;;5053381;28;20407;-68
2021/09/30 03:38:03;;;;;;;4.40;4.00;;;13.20;99.90;;;;;;5044101;28;20507;-73
2021/09/30 03:40:29;;;;;;;3.97;3.60;;;13.20;99.90;;;;;;5033749;28;20468;-67
2021/09/30 03:42:54;;;;;;;4.00;3.70;;;13.20;99.90;;;;;;5033440;28;20420;-67
2021/09/30 03:45:20;;;;;;;4.90;4.40;;;13.10;99.90;;;;;;5031726;28;20425;-67
2021/09/30 03:47:46;;;;;;;7.10;4.23;;;13.10;99.90;;;;;;5033143;28;20188;-68
2021/09/30 03:50:17;;;;;;;5.50;3.63;;;13.20;99.90;;;;;;5032143;28;20177;-68
2021/09/30 04:00:35;;;;;;;4.43;4.03;;;13.20;99.90;;;;;;5033098;28;20412;-68
2021/09/30 04:03:01;;;;;;;5.10;4.70;;;13.20;99.90;;;;;;5032592;28;20406;-73
2021/09/30 04:05:27;;;;;;;7.17;4.50;;;13.20;99.90;;;;;;5032710;28;20778;-67
2021/09/30 04:07:53;;;;;;;6.03;4.23;;;13.20;99.90;;;;;;4999074;28;20195;-67
2021/09/30 04:10:18;;;;;;;4.97;4.17;;;13.20;99.90;;;;;;5032249;28;20181;-68
2021/09/30 04:12:44;;;;;;;4.20;3.93;;;13.20;99.90;;;;;;5032887;28;20625;-67
2021/09/30 04:15:10;;;;;;;5.50;5.00;;;13.10;99.90;;;;;;5032280;28;20174;-68
2021/09/30 04:17:36;;;;;;;4.00;3.70;;;13.10;99.90;;;;;;5031902;28;20224;-68
2021/09/30 04:20:03;;;;;;;6.80;4.30;;;13.10;99.90;;;;;;5032297;28;20553;-74
2021/09/30 04:22:29;;;;;;;3.60;3.30;;;13.10;99.90;;;;;;5032646;28;20408;-68
2021/09/30 04:24:55;;;;;;;3.60;3.30;;;13.10;99.90;;;;;;5032413;28;20420;-67
2021/09/30 04:27:20;;;;;;;7.23;3.57;;;13.10;99.90;;;;;;5047179;28;20174;-68
2021/09/30 04:29:47;;;;;;;4.53;3.60;;;13.10;99.90;;;;;;5052501;28;20632;-67
2021/09/30 04:32:13;;;;;;;9.07;3.90;;;13.10;99.90;;;;;;5051673;28;20175;-68
2021/09/30 04:34:38;;;;;;;4.43;4.03;;;13.10;99.90;;;;;;5052453;28;20461;-68
2021/09/30 04:37:04;;;;;;;4.10;3.80;;;13.00;99.90;;;;;;5033643;28;20219;-74
2021/09/30 04:39:31;;;;;;;7.67;4.43;;;13.00;99.90;;;;;;5052242;28;20240;-67
2021/09/30 04:41:57;;;;;;;4.13;3.60;;;12.90;99.90;;;;;;5051473;28;20452;-68
2021/09/30 04:44:23;;;;;;;6.60;4.20;;;13.00;99.90;;;;;;5033729;28;20417;-68
2021/09/30 04:46:49;;;;;;;5.83;3.90;;;13.00;99.90;;;;;;5051917;28;20883;-67
2021/09/30 04:49:15;;;;;;;5.73;4.60;;;13.00;99.90;;;;;;5051362;28;20458;-67
2021/09/30 04:51:42;;;;;;;5.03;4.17;;;13.00;99.90;;;;;;5052082;28;20432;-67
2021/09/30 04:54:08;;;;;;;4.70;3.93;;;13.00;99.90;;;;;;5051391;28;20419;-68
2021/09/30 04:56:33;;;;;;;5.10;4.50;;;12.90;99.90;;;;;;5051853;28;20949;-69
2021/09/30 04:59:00;;;;;;;4.83;4.33;;;12.90;99.90;;;;;;5052010;28;20171;-68
2021/09/30 05:01:26;;;;;;;5.70;4.60;;;12.90;99.90;;;;;;5041450;28;20566;-67
2021/09/30 05:03:52;;;;;;;4.83;4.30;;;12.90;99.90;;;;;;5039513;28;20426;-67
2021/09/30 05:06:18;;;;;;;5.27;4.50;;;12.90;99.90;;;;;;5037386;28;20426;-67
2021/09/30 05:08:47;;;;;;;5.50;4.97;;;12.90;99.90;;;;;;5051916;28;20422;-68
2021/09/30 05:11:13;;;;;;;6.37;4.20;;;13.00;99.90;;;;;;5051241;28;20207;-67
2021/09/30 05:13:39;;;;;;;6.43;5.67;;;13.00;99.90;;;;;;5051798;28;20446;-68
2021/09/30 05:16:08;;;;;;;6.47;4.43;;;13.00;99.90;;;;;;5034074;28;20214;-67
2021/09/30 05:18:35;;;;;;;7.13;4.27;;;13.00;99.90;;;;;;5032678;28;20523;-67
2021/09/30 05:21:02;;;;;;;4.67;4.27;;;13.00;99.90;;;;;;5045209;28;20460;-67
2021/09/30 05:23:28;;;;;;;4.43;3.80;;;13.00;99.90;;;;;;5030969;28;20420;-68
2021/09/30 05:25:54;;;;;;;6.50;3.77;;;13.00;99.90;;;;;;5031304;28;20421;-67
2021/09/30 05:28:20;;;;;;;8.37;4.83;;;12.90;99.90;;;;;;5030388;28;20234;-68
2021/09/30 05:30:45;;;;;;;4.13;3.60;;;12.80;99.90;;;;;;5013834;28;20177;-68
2021/09/30 05:33:11;;;;;;;5.00;3.50;;;12.90;99.90;;;;;;5016759;28;20258;-68
2021/09/30 05:35:37;;;;;;;5.67;4.77;;;12.90;99.90;;;;;;5037640;28;20186;-68
2021/09/30 05:38:03;;;;;;;6.47;4.00;;;12.90;99.90;;;;;;5043869;28;20179;-68
2021/09/30 05:40:29;;;;;;;4.80;4.10;;;12.80;99.90;;;;;;5030524;28;20527;-68
2021/09/30 05:42:55;;;;;;;5.50;4.13;;;12.80;99.90;;;;;;5036945;28;20171;-68
2021/09/30 05:45:22;;;;;;;5.00;4.47;;;12.90;99.90;;;;;;5049207;28;20428;-68
2021/09/30 05:47:48;;;;;;;4.27;3.93;;;12.80;99.90;;;;;;5049982;28;20564;-68
2021/09/30 05:50:14;;;;;;;4.30;3.93;;;12.80;99.90;;;;;;5025334;28;20506;-68
2021/09/30 05:52:40;;;;;;;7.50;5.20;;;12.80;99.90;;;;;;5032652;28;20424;-68
2021/09/30 05:55:08;;;;;;;7.73;4.70;;;12.80;99.90;;;;;;5042153;28;20432;-74
2021/09/30 05:57:34;;;;;;;5.00;4.60;;;12.80;99.90;;;;;;5031977;28;20466;-67
2021/09/30 06:00:14;;;;;;;6.13;3.80;;;12.80;99.90;;;;;;5046904;28;20491;-67
2021/09/30 06:16:21;;;;;;;4.97;4.50;;;13.00;99.50;;;;;;5039659;28;20457;-70
2021/09/30 06:18:47;;;;;;;6.30;4.10;;;13.00;99.50;;;;;;5043369;28;20775;-69
2021/09/30 06:21:13;;;;;;;7.57;3.73;;;13.00;99.70;;;;;;5054088;28;20496;-69
2021/09/30 06:23:39;;;;;;;6.53;3.90;;;13.00;99.40;;;;;;5050420;28;21002;-68
2021/09/30 06:26:06;;;;;;;4.10;3.70;;;12.90;99.40;;;;;;5046299;28;20175;-69
2021/09/30 06:28:32;;;;;;;5.17;4.37;;;12.90;99.40;;;;;;5050174;28;20882;-69
2021/09/30 06:30:58;;;;;;;6.20;3.70;;;12.90;99.50;;;;;;5052599;28;20498;-68
2021/09/30 06:33:24;;;;;;;5.33;4.80;;;12.90;99.50;;;;;;5038013;28;20176;-69
2021/09/30 06:35:53;;;;;;;4.93;4.53;;;12.80;99.60;;;;;;5043873;28;20430;-69
2021/09/30 06:38:20;;;;;;;4.40;3.93;;;12.80;99.70;;;;;;5037191;28;20446;-68
2021/09/30 06:40:45;;;;;;;6.50;6.00;;;12.80;99.60;;;;;;5045243;28;20427;-68
2021/09/30 06:43:12;;;;;;;5.40;4.67;;;12.80;99.90;;;;;;5033448;28;20406;-76
2021/09/30 06:45:38;;;;;;;7.87;4.20;;;12.80;99.90;;;;;;5048536;28;20239;-69
2021/09/30 06:48:04;;;;;;;7.20;4.50;;;12.90;99.90;;;;;;5013186;28;20430;-69
2021/09/30 06:50:30;;;;;;;6.50;3.40;;;13.00;99.90;;;;;;5040484;28;20435;-68
2021/09/30 06:52:56;;;;;;;4.23;3.50;;;12.90;99.50;;;;;;5029066;28;20420;-68
2021/09/30 06:55:22;;;;;;;5.20;4.73;;;12.90;99.50;;;;;;5033828;28;20741;-68
2021/09/30 06:57:50;;;;;;;5.20;3.93;;;12.90;99.40;;;;;;5042898;28;20469;-68
2021/09/30 07:00:16;;;;;;;6.83;5.70;;;13.00;99.50;;;;;;5050708;28;20500;-68
2021/09/30 07:02:42;;;;;;;3.43;3.10;;;13.00;99.40;;;;;;5026516;28;20427;-68
2021/09/30 07:05:13;;;;;;;6.23;5.67;;;13.00;99.60;;;;;;5044088;28;20439;-77
2021/09/30 07:07:39;;;;;;;6.37;4.03;;;13.10;99.80;;;;;;5043933;28;20814;-69
2021/09/30 07:10:09;;;;;;;6.00;5.40;;;13.10;99.70;;;;;;5044389;28;20428;-68
2021/09/30 07:12:36;;;;;;;9.80;5.13;;;13.10;99.80;;;;;;5026684;28;20605;-68
2021/09/30 07:15:02;;;;;;;6.40;4.17;;;13.10;99.70;;;;;;5051876;28;20521;-68
2021/09/30 07:17:28;;;;;;;3.63;3.30;;;13.20;99.90;;;;;;5032862;28;20463;-69
2021/09/30 07:19:54;;;;;;;5.37;4.40;;;13.20;99.80;;;;;;5015828;28;20439;-69
2021/09/30 07:22:20;;;;;;;8.40;4.17;;;13.20;99.60;;;;;;5016344;28;20920;-71
2021/09/30 07:24:46;;;;;;;5.37;3.47;;;13.30;99.60;;;;;;5034099;28;20469;-70
2021/09/30 07:27:11;;;;;;;8.00;5.83;;;13.30;99.40;;;;;;5033615;28;20537;-70
2021/09/30 07:29:38;;;;;;;5.10;3.30;;;13.40;99.20;;;;;;5034114;28;20390;-69
2021/09/30 07:32:04;;;;;;;6.17;5.60;;;13.40;99.10;;;;;;5037667;28;20177;-69
2021/09/30 07:34:30;;;;;;;5.20;4.73;;;13.40;99.50;;;;;;5049240;28;20800;-68
2021/09/30 07:36:56;;;;;;;4.50;3.27;;;13.50;99.60;;;;;;5044856;28;20461;-68
2021/09/30 07:39:22;;;;;;;6.60;3.23;;;13.50;99.20;;;;;;5041247;28;20192;-69
2021/09/30 07:41:49;;;;;;;6.27;4.10;;;13.60;98.90;;;;;;5050857;28;20549;-69
2021/09/30 07:44:16;;;;;;;4.37;3.40;;;13.60;99.40;;;;;;5032641;28;20420;-71
2021/09/30 07:46:44;;;;;;;6.53;3.63;;;13.60;98.90;;;;;;5034266;28;20963;-70
2021/09/30 07:49:12;;;;;;;4.77;3.40;;;13.60;99.20;;;;;;5035449;28;20455;-68
2021/09/30 07:51:38;;;;;;;6.23;3.70;;;13.70;99.00;;;;;;5033618;28;20433;-68
2021/09/30 07:54:05;;;;;;;3.53;3.30;;;13.70;98.60;;;;;;5033581;28;20913;-68
2021/09/30 07:56:32;;;;;;;5.33;3.60;;;13.70;99.00;;;;;;5033329;28;21161;-69
2021/09/30 07:58:58;;;;;;;3.60;3.30;;;13.70;99.50;;;;;;5044844;28;20426;-68
2021/09/30 08:01:24;;;;;;;3.80;3.37;;;13.80;98.90;;;;;;5038908;28;20419;-69
2021/09/30 08:03:50;;;;;;;8.10;4.90;;;13.90;99.20;;;;;;5052962;28;20412;-68
2021/09/30 08:06:17;;;;;;;5.67;3.70;;;13.90;98.90;;;;;;5034213;28;20664;-69
2021/09/30 08:08:42;;;;;;;6.30;3.83;;;14.00;98.80;;;;;;5049995;28;20471;-68
2021/09/30 08:11:08;;;;;;;7.83;4.00;;;14.10;98.60;;;;;;5033305;28;20408;-68
2021/09/30 08:13:35;;;;;;;4.40;4.00;;;14.20;99.00;;;;;;5014859;28;20186;-68
2021/09/30 08:16:01;;;;;;;3.80;3.47;;;14.30;98.80;;;;;;5015413;28;20502;-68
2021/09/30 08:18:27;;;;;;;6.80;6.27;;;14.30;97.80;;;;;;5049531;28;20913;-72
2021/09/30 08:20:54;;;;;;;6.77;3.30;;;14.40;97.80;;;;;;5034137;28;20437;-68
2021/09/30 08:23:20;;;;;;;7.30;6.23;;;14.40;97.80;;;;;;5035855;28;20589;-69
2021/09/30 08:25:47;;;;;;;6.13;3.07;;;14.40;97.30;;;;;;5037097;28;20437;-69
2021/09/30 08:28:13;;;;;;;6.80;6.10;;;14.50;97.40;;;;;;5052769;28;20550;-73
2021/09/30 08:30:40;;;;;;;5.70;5.20;;;14.50;97.00;;;;;;5039842;28;20557;-68
2021/09/30 08:33:08;;;;;;;4.70;4.30;;;14.60;97.40;;;;;;5032998;28;20433;-68
2021/09/30 08:35:35;;;;;;;5.27;3.90;;;14.60;97.50;;;;;;5045209;28;20425;-68
2021/09/30 08:38:01;;;;;;;6.93;3.60;;;14.70;98.10;;;;;;5043727;28;20509;-68
2021/09/30 08:40:27;;;;;;;5.00;4.50;;;14.80;97.50;;;;;;5043958;28;20456;-68
2021/09/30 08:42:52;;;;;;;3.70;3.40;;;14.80;96.80;;;;;;5032589;28;20473;-68
2021/09/30 08:45:22;;;;;;;5.63;3.67;;;14.90;96.90;;;;;;5015521;28;20439;-76
2021/09/30 08:48:03;;;;;;;3.40;3.07;;;14.90;96.20;;;;;;5026197;28;20199;-68
2021/09/30 08:50:32;;;;;;;4.50;4.20;;;15.00;96.30;;;;;;5018265;28;20897;-69
2021/09/30 08:52:59;;;;;;;4.03;3.70;;;15.00;96.00;;;;;;5041898;28;20433;-73
2021/09/30 08:55:25;;;;;;;4.50;4.20;;;15.10;96.60;;;;;;5041553;28;20473;-68
2021/09/30 08:57:51;;;;;;;4.67;4.27;;;15.10;96.10;;;;;;5043552;28;20470;-69
2021/09/30 09:00:19;;;;;;;5.43;3.63;;;15.20;95.70;;;;;;5031822;28;20448;-69
2021/09/30 09:02:52;;;;;;;5.10;3.10;;;15.30;96.10;;;;;;5039279;28;20479;-69
2021/09/30 09:05:19;;;;;;;4.30;4.00;;;15.40;95.10;;;;;;5039234;28;20431;-76
2021/09/30 09:08:01;;;;;;;3.13;2.90;;;15.50;95.40;;;;;;5031765;28;20424;-69
2021/09/30 09:10:32;;;;;;;9.13;3.47;;;15.60;95.20;;;;;;5032503;28;20427;-69
2021/09/30 09:13:02;;;;;;;3.20;2.90;;;15.80;96.10;;;;;;5048359;28;20461;-68
2021/09/30 09:15:36;;;;;;;3.77;3.43;;;15.90;96.40;;;;;;5035242;28;20440;-69
2021/09/30 09:18:39;;;;;;;4.93;3.10;;;16.10;94.40;;;;;;5032502;28;20459;-69
2021/09/30 09:21:22;;;;;;;4.80;4.40;;;16.30;95.00;;;;;;5025314;28;20451;-69
2021/09/30 09:23:59;;;;;;;5.07;3.37;;;16.60;93.90;;;;;;5032668;28;20393;-70
2021/09/30 09:26:37;;;;;;;6.20;4.10;;;16.80;93.20;;;;;;5031883;28;20869;-70
2021/09/30 09:29:12;;;;;;;6.30;2.83;;;17.00;92.50;;;;;;5032512;28;20419;-69
2021/09/30 09:31:41;;;;;;;5.50;2.80;;;17.20;91.20;;;;;;5031791;28;20755;-69
2021/09/30 09:34:28;;;;;;;3.73;3.37;;;17.40;90.70;;;;;;5032427;28;20417;-69
2021/09/30 09:37:15;;;;;;;4.80;3.17;;;17.60;90.70;;;;;;5032288;28;20448;-69
2021/09/30 09:39:41;;;;;;;5.20;4.80;;;17.80;90.80;;;;;;5031678;28;20482;-69
2021/09/30 09:42:14;;;;;;;3.73;3.33;;;18.00;90.70;;;;;;5033775;28;20901;-69
2021/09/30 09:45:16;;;;;;;4.83;4.30;;;18.20;89.00;;;;;;5035656;28;20177;-69
2021/09/30 09:47:43;;;;;;;4.03;2.70;;;18.40;89.10;;;;;;5028432;28;20440;-69
2021/09/30 09:50:27;;;;;;;3.37;3.00;;;18.70;87.90;;;;;;5036022;28;20409;-69
2021/09/30 09:52:59;;;;;;;5.73;3.10;;;18.80;85.90;;;;;;5034925;28;20389;-69
2021/09/30 09:55:31;;;;;;;4.50;2.93;;;18.80;85.60;;;;;;5035505;28;20401;-69
2021/09/30 09:58:08;;;;;;;3.57;3.10;;;19.00;83.40;;;;;;5035856;28;20456;-69
2021/09/30 10:03:15;;;;;;;4.77;3.77;;;19.20;81.70;;;;;;3521462;23;20854;-69
2021/09/30 10:05:41;;;;;;;5.60;3.27;;;19.20;84.40;;;;;;5016467;28;20437;-69
2021/09/30 10:08:09;;;;;;;5.80;3.40;;;19.20;83.30;;;;;;5015588;28;20480;-69
2021/09/30 10:10:36;;;;;;;5.70;4.03;;;19.10;83.10;;;;;;5015933;28;20258;-69
2021/09/30 10:13:02;;;;;;;4.37;2.93;;;19.30;81.90;;;;;;5014937;28;20983;-68
2021/09/30 10:15:28;;;;;;;4.40;3.33;;;19.40;81.00;;;;;;5015662;28;20434;-69
2021/09/30 10:17:54;;;;;;;3.53;3.03;;;19.40;80.80;;;;;;5015251;28;20500;-69
2021/09/30 10:20:20;;;;;;;5.90;3.37;;;19.30;79.80;;;;;;5014789;28;20187;-69
2021/09/30 10:22:54;;;;;;;3.83;3.37;;;19.10;81.40;;;;;;5015209;28;20490;-68
2021/09/30 10:25:21;;;;;;;6.27;3.63;;;19.00;81.70;;;;;;5014500;28;20437;-69
2021/09/30 10:27:57;;;;;;;4.03;2.63;;;18.90;81.70;;;;;;5015355;28;20484;-69
2021/09/30 10:30:43;;;;;;;7.10;4.63;;;18.70;81.40;;;;;;5015583;28;20406;-69
2021/09/30 10:33:11;;;;;;;5.20;4.30;;;18.40;81.00;;;;;;5014852;28;20472;-68
2021/09/30 10:35:42;;;;;;;4.10;3.70;;;18.30;82.40;;;;;;5015570;28;20414;-69
2021/09/30 10:38:17;;;;;;;5.13;3.87;;;18.20;82.20;;;;;;5014403;28;20914;-69
2021/09/30 10:41:01;;;;;;;4.80;4.17;;;18.00;81.90;;;;;;5015262;28;20409;-69
2021/09/30 10:43:35;;;;;;;5.30;3.63;;;17.90;81.50;;;;;;5015211;28;20481;-69
2021/09/30 10:46:02;;;;;;;5.37;3.63;;;17.90;83.70;;;;;;5014433;28;20449;-69
2021/09/30 10:48:28;;;;;;;6.97;5.20;;;17.90;84.70;;;;;;5014968;28;20912;-69
2021/09/30 10:50:56;;;;;;;5.47;5.10;;;17.90;88.10;;;;;;5015026;28;20792;-69
2021/09/30 10:53:58;;;;;;;3.17;2.03;;;17.90;86.00;;;;;;5013319;28;20412;-68
2021/09/30 10:56:30;;;;;;;3.90;3.60;;;17.90;80.90;;;;;;4992091;28;20993;-69
2021/09/30 10:59:00;;;;;;;5.40;3.70;;;17.80;79.60;;;;;;5011255;28;20438;-68
2021/09/30 11:01:26;;;;;;;2.73;2.53;;;17.80;80.70;;;;;;5014879;28;20441;-69
2021/09/30 11:03:58;;;;;;;6.40;4.07;;;17.90;81.60;;;;;;5014847;28;20462;-68
2021/09/30 11:06:24;;;;;;;6.43;3.03;;;18.00;82.20;;;;;;5014810;28;20646;-69
2021/09/30 11:09:22;;;;;;;5.60;2.70;;;18.20;79.40;;;;;;5014373;28;20821;-69
2021/09/30 11:11:51;;;;;;;2.80;2.60;;;18.10;76.70;;;;;;5012639;28;20418;-69
2021/09/30 11:14:24;;;;;;;4.33;3.40;;;18.40;77.10;;;;;;5014042;28;20421;-69
2021/09/30 11:16:52;;;;;;;2.50;2.33;;;18.40;79.40;;;;;;5014489;28;20581;-69
2021/09/30 11:19:43;;;;;;;4.10;2.57;;;18.70;75.70;;;;;;5013861;28;20422;-69
2021/09/30 11:22:12;;;;;;;5.10;2.93;;;18.90;70.60;;;;;;5013907;28;20406;-69
2021/09/30 11:24:48;;;;;;;4.30;2.80;;;18.90;70.40;;;;;;5014801;28;20406;-68
2021/09/30 11:27:15;;;;;;;3.27;2.40;;;18.80;71.30;;;;;;5013843;28;20770;-69
2021/09/30 11:29:41;;;;;;;5.20;2.67;;;18.80;71.40;;;;;;5014342;28;20414;-69
2021/09/30 11:32:10;;;;;;;4.10;2.57;;;18.90;73.70;;;;;;5013738;28;20405;-69
2021/09/30 11:34:41;;;;;;;4.87;2.87;;;18.90;73.20;;;;;;5012764;28;20430;-69
2021/09/30 11:37:43;;;;;;;3.57;2.90;;;18.90;75.20;;;;;;5013636;28;20474;-69
2021/09/30 11:40:18;;;;;;;2.70;2.50;;;19.00;80.50;;;;;;5009560;28;20422;-69
2021/09/30 11:42:50;;;;;;;2.47;2.27;;;19.20;76.50;;;;;;5014141;28;20417;-68
2021/09/30 11:45:27;;;;;;;2.93;2.70;;;19.20;74.30;;;;;;5013084;28;20398;-68
2021/09/30 11:48:03;;;;;;;3.00;2.30;;;19.20;71.10;;;;;;5013822;28;20402;-69
2021/09/30 11:50:29;;;;;;;5.00;2.63;;;19.10;69.60;;;;;;5013985;28;20397;-69
2021/09/30 11:53:05;;;;;;;2.83;2.63;;;19.00;70.90;;;;;;5013934;28;20406;-69
2021/09/30 11:55:34;;;;;;;2.40;2.20;;;18.90;67.10;;;;;;5013997;28;20540;-69
2021/09/30 11:58:03;;;;;;;2.90;2.70;;;18.90;67.60;;;;;;5012671;28;20541;-70
2021/09/30 12:00:30;;;;;;;4.10;3.17;;;18.80;68.70;;;;;;5013888;28;20443;-69
2021/09/30 12:03:05;;;;;;;3.87;3.67;;;18.80;69.60;;;;;;5013601;28;20421;-68
2021/09/30 12:05:36;;;;;;;2.30;2.20;;;18.70;69.00;;;;;;5013159;28;20802;-69
2021/09/30 12:08:04;;;;;;;6.03;4.70;;;18.60;68.50;;;;;;5013179;28;20398;-72
2021/09/30 12:10:33;;;;;;;3.07;2.77;;;18.50;70.80;;;;;;5012443;28;20406;-69
2021/09/30 12:13:09;;;;;;;2.30;2.17;;;18.60;71.50;;;;;;5013627;28;20410;-69
2021/09/30 12:15:35;;;;;;;4.67;4.47;;;18.50;72.10;;;;;;5013614;28;20402;-69
2021/09/30 12:18:04;;;;;;;3.23;2.30;;;18.50;69.90;;;;;;5013487;28;20460;-69
2021/09/30 12:20:29;;;;;;;4.13;2.70;;;18.50;70.20;;;;;;5013513;28;20229;-69
2021/09/30 12:23:00;;;;;;;4.57;4.27;;;18.50;66.80;;;;;;5013455;28;20410;-69
2021/09/30 12:25:27;;;;;;;3.67;2.30;;;18.40;66.40;;;;;;5012841;28;20159;-69
2021/09/30 12:27:56;;;;;;;5.23;4.70;;;18.40;67.00;;;;;;5013330;28;20422;-70
2021/09/30 12:30:28;;;;;;;4.20;4.00;;;18.30;67.00;;;;;;5012394;28;20467;-69
2021/09/30 12:33:01;;;;;;;3.43;2.43;;;18.30;67.40;;;;;;5013108;28;20464;-69
2021/09/30 12:35:39;;;;;;;2.40;2.20;;;18.20;69.00;;;;;;5010781;28;20966;-69
2021/09/30 12:38:14;;;;;;;4.40;4.10;;;18.20;69.10;;;;;;5010756;28;20461;-75
2021/09/30 12:40:50;;;;;;;2.27;1.80;;;18.20;68.20;;;;;;5013435;28;20406;-69
2021/09/30 12:43:25;;;;;;;2.53;2.33;;;18.20;67.50;;;;;;5012608;28;20405;-69
2021/09/30 12:46:05;;;;;;;2.70;2.50;;;18.10;67.60;;;;;;5013086;28;20409;-69
2021/09/30 12:48:32;;;;;;;3.90;2.40;;;18.10;66.10;;;;;;5013359;28;20403;-69
2021/09/30 12:51:08;;;;;;;2.60;2.50;;;18.10;69.00;;;;;;5012610;28;20455;-70
2021/09/30 12:53:48;;;;;;;4.63;4.43;;;18.10;69.20;;;;;;5011066;28;20418;-69
2021/09/30 12:56:17;;;;;;;2.53;2.10;;;18.10;71.10;;;;;;5010814;28;20473;-70
2021/09/30 12:58:47;;;;;;;3.80;3.47;;;18.10;70.10;;;;;;5012707;28;20821;-69
2021/09/30 13:01:25;;;;;;;4.90;4.63;;;18.10;70.10;;;;;;5012383;28;20429;-70
2021/09/30 13:04:11;;;;;;;3.97;2.23;;;18.00;70.20;;;;;;5012716;28;20469;-70
2021/09/30 13:06:40;;;;;;;2.60;2.40;;;18.00;69.00;;;;;;5012972;28;20407;-69
2021/09/30 13:09:38;;;;;;;4.03;3.83;;;18.00;69.60;;;;;;5012587;28;20422;-70
2021/09/30 13:12:15;;;;;;;4.97;4.73;;;18.00;70.20;;;;;;5012490;28;20430;-69
2021/09/30 13:14:46;;;;;;;3.30;2.30;;;18.00;70.70;;;;;;5012956;28;20398;-69
2021/09/30 13:17:21;;;;;;;2.63;2.43;;;18.00;68.70;;;;;;5013864;28;20441;-69
2021/09/30 13:20:08;;;;;;;4.90;4.60;;;18.00;67.90;;;;;;5015538;28;20413;-69
2021/09/30 13:22:38;;;;;;;4.43;3.13;;;17.90;68.80;;;;;;5015658;28;20402;-69
2021/09/30 13:25:14;;;;;;;3.20;2.50;;;17.90;71.00;;;;;;5016810;28;20426;-69
2021/09/30 13:27:41;;;;;;;4.70;4.40;;;17.80;67.80;;;;;;5016855;28;20402;-69
2021/09/30 13:30:09;;;;;;;2.53;2.33;;;17.80;68.70;;;;;;5016376;28;20406;-76
2021/09/30 13:32:36;;;;;;;4.73;4.43;;;17.70;70.30;;;;;;5016083;28;20414;-69
2021/09/30 13:35:02;;;;;;;4.13;3.80;;;17.70;71.20;;;;;;5016071;28;20951;-69
2021/09/30 13:37:28;;;;;;;4.43;4.03;;;17.70;70.80;;;;;;5015584;28;20479;-69
2021/09/30 13:40:00;;;;;;;2.67;2.53;;;17.80;70.20;;;;;;5016096;28;20406;-69
2021/09/30 13:42:30;;;;;;;3.27;2.97;;;17.90;71.70;;;;;;5015657;28;20738;-69
2021/09/30 13:44:56;;;;;;;3.63;2.40;;;18.00;71.30;;;;;;5016056;28;20887;-69
2021/09/30 13:47:23;;;;;;;2.93;2.50;;;18.20;72.70;;;;;;5014997;28;20893;-69
2021/09/30 13:49:54;;;;;;;2.73;2.40;;;18.30;69.20;;;;;;5015963;28;20403;-68
2021/09/30 13:52:20;;;;;;;6.93;6.43;;;18.30;69.30;;;;;;5014524;28;20410;-69
2021/09/30 13:54:46;;;;;;;5.90;5.40;;;18.40;70.40;;;;;;5015898;28;20398;-72
2021/09/30 13:57:12;;;;;;;5.17;4.77;;;18.50;69.70;;;;;;5014990;28;20453;-79
2021/09/30 13:59:38;;;;;;;3.00;2.70;;;18.50;69.80;;;;;;5015706;28;20513;-72
2021/09/30 14:02:06;;;;;;;3.70;3.50;;;18.40;70.20;;;;;;5015396;28;20178;-72
2021/09/30 14:04:32;;;;;;;2.70;2.50;;;18.30;70.10;;;;;;5014609;28;20556;-73
2021/09/30 14:06:58;;;;;;;4.10;2.73;;;18.30;72.00;;;;;;5016035;28;20504;-72
2021/09/30 14:09:25;;;;;;;4.27;3.10;;;18.40;72.20;;;;;;5015580;28;20187;-72
2021/09/30 14:11:51;;;;;;;3.33;3.03;;;18.40;71.30;;;;;;5015851;28;20402;-72
2021/09/30 14:14:18;;;;;;;4.40;4.00;;;18.30;71.20;;;;;;5015263;28;20448;-72
2021/09/30 14:16:44;;;;;;;4.27;2.27;;;18.30;71.70;;;;;;5015635;28;20450;-72
2021/09/30 14:19:10;;;;;;;2.77;2.43;;;18.20;72.10;;;;;;5015168;28;20436;-75
2021/09/30 14:21:36;;;;;;;2.87;2.00;;;18.10;72.40;;;;;;5015579;28;20464;-72
2021/09/30 14:24:02;;;;;;;2.67;2.57;;;17.90;73.10;;;;;;5015052;28;20418;-72
2021/09/30 14:26:27;;;;;;;2.63;2.40;;;17.90;74.80;;;;;;5014130;28;20266;-72
2021/09/30 14:28:53;;;;;;;3.93;2.97;;;17.80;75.30;;;;;;5013433;28;20666;-72
2021/09/30 14:31:20;;;;;;;3.17;2.40;;;17.60;71.70;;;;;;5015255;28;20213;-72
2021/09/30 14:33:45;;;;;;;3.40;3.10;;;17.50;72.10;;;;;;5015466;28;20171;-72
2021/09/30 14:36:12;;;;;;;3.90;2.60;;;17.50;70.60;;;;;;5014795;28;20446;-75
2021/09/30 14:38:38;;;;;;;2.07;1.97;;;17.40;70.80;;;;;;5015487;28;20179;-72
2021/09/30 14:41:04;;;;;;;3.73;2.70;;;17.40;71.10;;;;;;5015491;28;20425;-72
2021/09/30 14:43:33;;;;;;;2.80;2.60;;;17.40;71.20;;;;;;5013758;28;20414;-72
2021/09/30 14:45:59;;;;;;;3.77;3.10;;;17.40;71.80;;;;;;5015614;28;20183;-72
2021/09/30 14:48:24;;;;;;;3.30;2.80;;;17.40;72.40;;;;;;5013938;28;20517;-72
2021/09/30 14:50:52;;;;;;;4.80;4.50;;;17.30;73.30;;;;;;5014483;28;20215;-72
2021/09/30 14:53:18;;;;;;;3.13;2.43;;;17.30;73.00;;;;;;5013883;28;20258;-69
2021/09/30 14:55:44;;;;;;;5.20;4.70;;;17.30;73.00;;;;;;5014570;28;20497;-70
2021/09/30 14:58:10;;;;;;;3.70;3.40;;;17.30;73.20;;;;;;5014943;28;20492;-69
2021/09/30 15:00:35;;;;;;;4.23;3.20;;;17.30;73.10;;;;;;5014385;28;20894;-68
2021/09/30 15:03:03;;;;;;;2.87;2.67;;;17.30;73.20;;;;;;5014705;28;20250;-69
2021/09/30 15:05:30;;;;;;;5.13;4.63;;;17.30;73.90;;;;;;5014002;28;20187;-68
2021/09/30 15:07:57;;;;;;;3.37;3.07;;;17.30;76.00;;;;;;5014610;28;20460;-69
2021/09/30 15:10:23;;;;;;;4.20;3.50;;;17.40;76.20;;;;;;5013520;28;20456;-69
2021/09/30 15:12:49;;;;;;;2.67;2.23;;;17.40;75.20;;;;;;5013560;28;20419;-69
2021/09/30 15:15:14;;;;;;;2.33;2.20;;;17.30;74.60;;;;;;5013728;28;20493;-68
2021/09/30 15:22:37;;;;;;;2.83;2.63;;;17.20;74.80;;;;;;5013685;28;20909;-70
2021/09/30 15:25:04;;;;;;;4.43;2.60;;;17.20;75.20;;;;;;5014218;28;20414;-70
2021/09/30 15:27:30;;;;;;;5.40;5.00;;;17.20;75.30;;;;;;5013787;28;20752;-70
2021/09/30 15:29:55;;;;;;;5.47;5.00;;;17.30;76.70;;;;;;5014377;28;20406;-69
2021/09/30 15:32:21;;;;;;;5.10;4.60;;;17.20;76.20;;;;;;5013793;28;20212;-70
2021/09/30 15:34:49;;;;;;;4.70;3.37;;;17.20;75.90;;;;;;5013578;28;20190;-69
2021/09/30 15:37:15;;;;;;;6.37;5.37;;;17.30;76.70;;;;;;5010561;28;20453;-84
2021/09/30 15:39:41;;;;;;;5.00;4.70;;;17.30;77.00;;;;;;5011994;28;20425;-71
2021/09/30 15:42:11;;;;;;;3.40;3.20;;;17.40;79.90;;;;;;5006398;28;20450;-72
2021/09/30 15:44:37;;;;;;;6.00;3.13;;;17.50;78.50;;;;;;4998941;28;20425;-72
2021/09/30 15:47:03;;;;;;;3.70;2.90;;;17.70;81.00;;;;;;4997255;28;20419;-71
2021/09/30 15:49:29;;;;;;;3.27;3.07;;;17.80;83.20;;;;;;4976138;28;20207;-72
2021/09/30 15:51:55;;;;;;;5.27;3.53;;;17.90;79.10;;;;;;5003172;28;20765;-71
2021/09/30 15:54:21;;;;;;;4.80;3.40;;;18.00;78.70;;;;;;5003065;28;20184;-72
2021/09/30 15:56:46;;;;;;;3.43;2.73;;;18.00;78.60;;;;;;4995065;28;20215;-71
2021/09/30 15:59:12;;;;;;;3.70;2.90;;;18.10;78.60;;;;;;4993243;28;20202;-72
2021/09/30 16:01:38;;;;;;;3.87;3.60;;;18.20;77.40;;;;;;5010566;28;20178;-71
2021/09/30 16:04:04;;;;;;;3.57;3.27;;;18.20;76.40;;;;;;4997548;28;20238;-73
2021/09/30 16:06:29;;;;;;;3.63;3.30;;;18.20;77.00;;;;;;5012486;28;20183;-71
2021/09/30 16:08:55;;;;;;;4.37;3.30;;;18.30;78.50;;;;;;5013327;28;20167;-71